WUK8DX EGGW-LFBD
Flight info
| Callsign | WUK8DX |
|---|---|
| Flight time | 1h 25m |
| Altitude | 35000 |
| Route | RODNI N27 ICTAM Q63 CPT N859 VAPID UN859 BENAR/N0445F330 UN859 SOPIL DCT BALAN DCT LMG |
| Aircraft | A321/M-SDE3FGHIRWY/LB1 |
Departure
| Time | 2026-05-05 13:57 |
|---|---|
| Airport | London Luton Airport (EGGW) |
Arrival
| Time | 2026-05-05 15:23 |
|---|---|
| Airport | Bordeaux–Mérignac Airport (LFBD) |
| Time | Latitude | Longitude | Altitude | Speed | Heading |
|---|---|---|---|---|---|
| 2026-05-05 13:22 | 51.87969 | -0.37265 | 510 ft | 0 kts | 161° |
| 2026-05-05 13:46 | 51.87970 | -0.37266 | 508 ft | 2 kts | 161° |
| 2026-05-05 13:47 | 51.87994 | -0.37279 | 508 ft | 3 kts | 161° |
| 2026-05-05 13:47 | 51.88013 | -0.37291 | 508 ft | 4 kts | 128° |
| 2026-05-05 13:47 | 51.88018 | -0.37324 | 508 ft | 4 kts | 76° |
| 2026-05-05 13:47 | 51.88011 | -0.37363 | 508 ft | 4 kts | 72° |
| 2026-05-05 13:48 | 51.88004 | -0.37397 | 508 ft | 0 kts | 72° |
| 2026-05-05 13:52 | 51.88005 | -0.37395 | 508 ft | 1 kts | 72° |
| 2026-05-05 13:52 | 51.88015 | -0.37342 | 508 ft | 8 kts | 72° |
| 2026-05-05 13:52 | 51.88042 | -0.37219 | 508 ft | 15 kts | 72° |
| 2026-05-05 13:52 | 51.87968 | -0.37104 | 509 ft | 19 kts | 161° |
| 2026-05-05 13:53 | 51.87825 | -0.37034 | 513 ft | 23 kts | 162° |
| 2026-05-05 13:53 | 51.87675 | -0.36949 | 524 ft | 17 kts | 166° |
| 2026-05-05 13:53 | 51.87609 | -0.37084 | 522 ft | 16 kts | 253° |
| 2026-05-05 13:53 | 51.87577 | -0.37285 | 522 ft | 15 kts | 264° |
| 2026-05-05 13:54 | 51.87553 | -0.37456 | 522 ft | 19 kts | 210° |
| 2026-05-05 13:54 | 51.87483 | -0.37652 | 523 ft | 23 kts | 253° |
| 2026-05-05 13:54 | 51.87436 | -0.37931 | 524 ft | 28 kts | 254° |
| 2026-05-05 13:54 | 51.87363 | -0.38071 | 523 ft | 0 kts | 207° |
| 2026-05-05 13:55 | 51.87358 | -0.38075 | 523 ft | 4 kts | 205° |
| 2026-05-05 13:55 | 51.87309 | -0.38106 | 522 ft | 11 kts | 197° |
| 2026-05-05 13:55 | 51.87240 | -0.38082 | 524 ft | 10 kts | 99° |
| 2026-05-05 13:56 | 51.87266 | -0.37978 | 524 ft | 0 kts | 73° |
| 2026-05-05 13:56 | 51.87289 | -0.37858 | 524 ft | 45 kts | 73° |
| 2026-05-05 13:56 | 51.87452 | -0.36896 | 523 ft | 127 kts | 74° |
| 2026-05-05 13:57 | 51.87723 | -0.35208 | 789 ft | 170 kts | 74° |
| 2026-05-05 13:57 | 51.88027 | -0.33284 | 1625 ft | 180 kts | 73° |
| 2026-05-05 13:57 | 51.88389 | -0.31245 | 1936 ft | 201 kts | 71° |
| 2026-05-05 13:57 | 51.88819 | -0.28944 | 2255 ft | 226 kts | 71° |
| 2026-05-05 13:58 | 51.89192 | -0.26349 | 2646 ft | 248 kts | 89° |
| 2026-05-05 13:58 | 51.88671 | -0.23684 | 3305 ft | 261 kts | 126° |
| 2026-05-05 13:58 | 51.87192 | -0.21913 | 4110 ft | 269 kts | 161° |
| 2026-05-05 13:58 | 51.85349 | -0.21808 | 4930 ft | 275 kts | 195° |
| 2026-05-05 13:59 | 51.82872 | -0.26176 | 6529 ft | 278 kts | 257° |
| 2026-05-05 13:59 | 51.82576 | -0.29260 | 7322 ft | 279 kts | 266° |
| 2026-05-05 14:00 | 51.82244 | -0.35558 | 8861 ft | 284 kts | 264° |
| 2026-05-05 14:00 | 51.82072 | -0.37663 | 9364 ft | 286 kts | 262° |
| 2026-05-05 14:00 | 51.81595 | -0.41944 | 10209 ft | 297 kts | 257° |
| 2026-05-05 14:00 | 51.81001 | -0.45278 | 10373 ft | 320 kts | 252° |
| 2026-05-05 14:01 | 51.80252 | -0.48769 | 10706 ft | 335 kts | 250° |
| 2026-05-05 14:01 | 51.79430 | -0.52327 | 11326 ft | 340 kts | 250° |
| 2026-05-05 14:01 | 51.78578 | -0.55918 | 11999 ft | 343 kts | 249° |
| 2026-05-05 14:01 | 51.77727 | -0.59486 | 12664 ft | 347 kts | 248° |
| 2026-05-05 14:02 | 51.76562 | -0.62910 | 13294 ft | 351 kts | 235° |
| 2026-05-05 14:02 | 51.75150 | -0.66144 | 13941 ft | 354 kts | 234° |
| 2026-05-05 14:02 | 51.73714 | -0.69392 | 14541 ft | 357 kts | 234° |
| 2026-05-05 14:02 | 51.72261 | -0.72655 | 15131 ft | 360 kts | 234° |
| 2026-05-05 14:03 | 51.70791 | -0.75941 | 15746 ft | 363 kts | 234° |
| 2026-05-05 14:03 | 51.69310 | -0.79249 | 16369 ft | 365 kts | 234° |
| 2026-05-05 14:03 | 51.67804 | -0.82567 | 16975 ft | 368 kts | 231° |
| 2026-05-05 14:03 | 51.65903 | -0.85340 | 17547 ft | 371 kts | 212° |
| 2026-05-05 14:04 | 51.63531 | -0.86984 | 18133 ft | 374 kts | 193° |
| 2026-05-05 14:04 | 51.60933 | -0.87285 | 18647 ft | 377 kts | 174° |
| 2026-05-05 14:04 | 51.58419 | -0.86258 | 19168 ft | 380 kts | 160° |
| 2026-05-05 14:04 | 51.55922 | -0.84767 | 19705 ft | 383 kts | 160° |
| 2026-05-05 14:05 | 51.53420 | -0.83252 | 20236 ft | 385 kts | 160° |
| 2026-05-05 14:05 | 51.50903 | -0.81722 | 20771 ft | 388 kts | 160° |
| 2026-05-05 14:05 | 51.48368 | -0.80193 | 21294 ft | 391 kts | 161° |
| 2026-05-05 14:05 | 51.45806 | -0.78657 | 21823 ft | 394 kts | 161° |
| 2026-05-05 14:06 | 51.43229 | -0.77118 | 22366 ft | 397 kts | 161° |
| 2026-05-05 14:06 | 51.40636 | -0.75569 | 22875 ft | 399 kts | 161° |
| 2026-05-05 14:06 | 51.38017 | -0.74009 | 23369 ft | 402 kts | 161° |
| 2026-05-05 14:06 | 51.35422 | -0.72468 | 23805 ft | 405 kts | 161° |
| 2026-05-05 14:07 | 51.32773 | -0.70896 | 24233 ft | 406 kts | 161° |
| 2026-05-05 14:07 | 51.30122 | -0.69321 | 24680 ft | 407 kts | 161° |
| 2026-05-05 14:07 | 51.27456 | -0.67740 | 25115 ft | 409 kts | 161° |
| 2026-05-05 14:07 | 51.24786 | -0.66161 | 25555 ft | 410 kts | 161° |
| 2026-05-05 14:08 | 51.22107 | -0.64580 | 25972 ft | 411 kts | 161° |
| 2026-05-05 14:08 | 51.19416 | -0.62996 | 26384 ft | 413 kts | 161° |
| 2026-05-05 14:08 | 51.16719 | -0.61408 | 26788 ft | 414 kts | 161° |
| 2026-05-05 14:08 | 51.14012 | -0.59814 | 27198 ft | 416 kts | 161° |
| 2026-05-05 14:09 | 51.11294 | -0.58219 | 27611 ft | 417 kts | 161° |
| 2026-05-05 14:09 | 51.08562 | -0.56615 | 28017 ft | 418 kts | 161° |
| 2026-05-05 14:09 | 51.05827 | -0.55007 | 28419 ft | 420 kts | 161° |
| 2026-05-05 14:09 | 51.03086 | -0.53395 | 28815 ft | 421 kts | 161° |
| 2026-05-05 14:10 | 51.00328 | -0.51776 | 29191 ft | 422 kts | 161° |
| 2026-05-05 14:10 | 50.97602 | -0.50179 | 29563 ft | 424 kts | 161° |
| 2026-05-05 14:10 | 50.94828 | -0.48559 | 29926 ft | 425 kts | 161° |
| 2026-05-05 14:10 | 50.92043 | -0.46933 | 30226 ft | 427 kts | 161° |
| 2026-05-05 14:11 | 50.89240 | -0.45300 | 30502 ft | 430 kts | 161° |
| 2026-05-05 14:11 | 50.86426 | -0.43666 | 30790 ft | 432 kts | 161° |
| 2026-05-05 14:11 | 50.83594 | -0.42022 | 31100 ft | 433 kts | 161° |
| 2026-05-05 14:11 | 50.80763 | -0.40379 | 31497 ft | 433 kts | 161° |
| 2026-05-05 14:12 | 50.77934 | -0.38742 | 31866 ft | 433 kts | 161° |
| 2026-05-05 14:12 | 50.75108 | -0.37108 | 32229 ft | 433 kts | 161° |
| 2026-05-05 14:12 | 50.72281 | -0.35471 | 32597 ft | 433 kts | 161° |
| 2026-05-05 14:12 | 50.69455 | -0.33836 | 32946 ft | 433 kts | 161° |
| 2026-05-05 14:13 | 50.66662 | -0.32228 | 33305 ft | 432 kts | 161° |
| 2026-05-05 14:13 | 50.63831 | -0.30602 | 33656 ft | 432 kts | 161° |
| 2026-05-05 14:13 | 50.61005 | -0.28980 | 33998 ft | 432 kts | 161° |
| 2026-05-05 14:13 | 50.58177 | -0.27353 | 34281 ft | 432 kts | 161° |
| 2026-05-05 14:14 | 50.55351 | -0.25729 | 34546 ft | 432 kts | 161° |
| 2026-05-05 14:14 | 50.52521 | -0.24108 | 34807 ft | 433 kts | 161° |
| 2026-05-05 14:14 | 50.49686 | -0.22487 | 34922 ft | 433 kts | 161° |
| 2026-05-05 14:14 | 50.46875 | -0.20882 | 34943 ft | 427 kts | 161° |
| 2026-05-05 14:15 | 50.41318 | -0.17703 | 34941 ft | 423 kts | 161° |
| 2026-05-05 14:15 | 50.35816 | -0.14581 | 34939 ft | 423 kts | 161° |
| 2026-05-05 14:16 | 50.30287 | -0.11444 | 34938 ft | 422 kts | 161° |
| 2026-05-05 14:16 | 50.24763 | -0.08322 | 34940 ft | 422 kts | 161° |
| 2026-05-05 14:17 | 50.19245 | -0.05205 | 34946 ft | 422 kts | 161° |
| 2026-05-05 14:17 | 50.13721 | -0.02091 | 34951 ft | 421 kts | 161° |
| 2026-05-05 14:18 | 50.08186 | 0.00727 | 34958 ft | 420 kts | 166° |
| 2026-05-05 14:18 | 50.02519 | 0.02964 | 34961 ft | 419 kts | 166° |
| 2026-05-05 14:19 | 49.96857 | 0.05174 | 34953 ft | 418 kts | 166° |
| 2026-05-05 14:19 | 49.91247 | 0.07368 | 34957 ft | 418 kts | 166° |
| 2026-05-05 14:20 | 49.85620 | 0.09586 | 34947 ft | 417 kts | 166° |
| 2026-05-05 14:20 | 49.80001 | 0.11793 | 34948 ft | 416 kts | 166° |
| 2026-05-05 14:21 | 49.74386 | 0.13985 | 34943 ft | 416 kts | 166° |
| 2026-05-05 14:21 | 49.68788 | 0.16155 | 34941 ft | 415 kts | 166° |
| 2026-05-05 14:22 | 49.63185 | 0.18374 | 34944 ft | 415 kts | 165° |
| 2026-05-05 14:22 | 49.57604 | 0.20647 | 34944 ft | 414 kts | 165° |
| 2026-05-05 14:23 | 49.52062 | 0.22883 | 34942 ft | 414 kts | 165° |
| 2026-05-05 14:23 | 49.46477 | 0.25122 | 34916 ft | 414 kts | 165° |
| 2026-05-05 14:24 | 49.40890 | 0.27350 | 34913 ft | 414 kts | 165° |
| 2026-05-05 14:24 | 49.36251 | 0.29205 | 34912 ft | 415 kts | 165° |
| 2026-05-05 14:25 | 49.30665 | 0.31428 | 34910 ft | 414 kts | 165° |
| 2026-05-05 14:25 | 49.24193 | 0.34112 | 34912 ft | 415 kts | 163° |
| 2026-05-05 14:26 | 49.19541 | 0.36103 | 34907 ft | 414 kts | 163° |
| 2026-05-05 14:26 | 49.13980 | 0.38463 | 34901 ft | 414 kts | 163° |
| 2026-05-05 14:27 | 49.08452 | 0.40792 | 34899 ft | 415 kts | 163° |
| 2026-05-05 14:27 | 49.02880 | 0.43129 | 34896 ft | 415 kts | 163° |
| 2026-05-05 14:28 | 48.97295 | 0.45456 | 34895 ft | 416 kts | 163° |
| 2026-05-05 14:28 | 48.91708 | 0.47779 | 34889 ft | 416 kts | 163° |
| 2026-05-05 14:29 | 48.86120 | 0.50111 | 34885 ft | 416 kts | 163° |
| 2026-05-05 14:29 | 48.80531 | 0.52432 | 34884 ft | 417 kts | 163° |
| 2026-05-05 14:30 | 48.74959 | 0.54700 | 34882 ft | 418 kts | 164° |
| 2026-05-05 14:30 | 48.69321 | 0.56895 | 34882 ft | 418 kts | 164° |
| 2026-05-05 14:31 | 48.63670 | 0.59064 | 34880 ft | 419 kts | 164° |
| 2026-05-05 14:31 | 48.58021 | 0.61258 | 34885 ft | 419 kts | 164° |
| 2026-05-05 14:32 | 48.52365 | 0.63468 | 34882 ft | 420 kts | 164° |
| 2026-05-05 14:32 | 48.46725 | 0.65732 | 34879 ft | 419 kts | 163° |
| 2026-05-05 14:33 | 48.41132 | 0.68032 | 34869 ft | 419 kts | 163° |
| 2026-05-05 14:33 | 48.35507 | 0.70330 | 34867 ft | 419 kts | 163° |
| 2026-05-05 14:34 | 48.29869 | 0.72608 | 34866 ft | 419 kts | 163° |
| 2026-05-05 14:34 | 48.24225 | 0.74873 | 34858 ft | 419 kts | 164° |
| 2026-05-05 14:35 | 48.18619 | 0.77090 | 34849 ft | 419 kts | 164° |
| 2026-05-05 14:35 | 48.12962 | 0.79310 | 34838 ft | 419 kts | 164° |
| 2026-05-05 14:36 | 48.07313 | 0.81524 | 34848 ft | 420 kts | 164° |
| 2026-05-05 14:36 | 48.01640 | 0.83740 | 34841 ft | 421 kts | 164° |
| 2026-05-05 14:37 | 47.96024 | 0.85936 | 34822 ft | 419 kts | 164° |
| 2026-05-05 14:37 | 47.90377 | 0.88136 | 34819 ft | 420 kts | 164° |
| 2026-05-05 14:38 | 47.84719 | 0.90338 | 34824 ft | 420 kts | 164° |
| 2026-05-05 14:38 | 47.79051 | 0.92540 | 34822 ft | 421 kts | 164° |
| 2026-05-05 14:39 | 47.73418 | 0.94723 | 34837 ft | 421 kts | 165° |
| 2026-05-05 14:39 | 47.67744 | 0.96912 | 34840 ft | 422 kts | 165° |
| 2026-05-05 14:40 | 47.62060 | 0.99098 | 34851 ft | 422 kts | 165° |
| 2026-05-05 14:40 | 47.56372 | 1.01293 | 34855 ft | 422 kts | 165° |
| 2026-05-05 14:41 | 47.50706 | 1.03466 | 34859 ft | 423 kts | 165° |
| 2026-05-05 14:41 | 47.44999 | 1.05637 | 34867 ft | 423 kts | 166° |
| 2026-05-05 14:42 | 47.39154 | 1.06367 | 34871 ft | 424 kts | 180° |
| 2026-05-05 14:42 | 47.33251 | 1.06212 | 34868 ft | 424 kts | 180° |
| 2026-05-05 14:43 | 47.27355 | 1.06080 | 34873 ft | 424 kts | 180° |
| 2026-05-05 14:43 | 47.21497 | 1.05943 | 34867 ft | 423 kts | 180° |
| 2026-05-05 14:44 | 47.15615 | 1.05803 | 34868 ft | 423 kts | 180° |
| 2026-05-05 14:44 | 47.09712 | 1.05602 | 34825 ft | 425 kts | 181° |
| 2026-05-05 14:45 | 47.06763 | 1.05491 | 34705 ft | 423 kts | 181° |
| 2026-05-05 14:45 | 47.03823 | 1.05378 | 34588 ft | 422 kts | 181° |
| 2026-05-05 14:45 | 47.00885 | 1.05261 | 34471 ft | 421 kts | 181° |
| 2026-05-05 14:45 | 46.97955 | 1.05142 | 34358 ft | 421 kts | 181° |
| 2026-05-05 14:46 | 46.95027 | 1.05017 | 34249 ft | 421 kts | 181° |
| 2026-05-05 14:46 | 46.92098 | 1.04891 | 34133 ft | 421 kts | 181° |
| 2026-05-05 14:46 | 46.89193 | 1.04765 | 34018 ft | 421 kts | 181° |
| 2026-05-05 14:46 | 46.86261 | 1.04636 | 33722 ft | 421 kts | 180° |
| 2026-05-05 14:47 | 46.83334 | 1.04492 | 33056 ft | 421 kts | 180° |
| 2026-05-05 14:47 | 46.80398 | 1.04314 | 32324 ft | 424 kts | 180° |
| 2026-05-05 14:47 | 46.77434 | 1.04100 | 31553 ft | 428 kts | 180° |
| 2026-05-05 14:47 | 46.74444 | 1.03853 | 30780 ft | 432 kts | 180° |
| 2026-05-05 14:48 | 46.71431 | 1.03571 | 30044 ft | 435 kts | 180° |
| 2026-05-05 14:48 | 46.68412 | 1.03265 | 29415 ft | 433 kts | 181° |
| 2026-05-05 14:48 | 46.65458 | 1.02974 | 28869 ft | 429 kts | 181° |
| 2026-05-05 14:48 | 46.62490 | 1.02701 | 28332 ft | 425 kts | 181° |
| 2026-05-05 14:49 | 46.59551 | 1.02447 | 27813 ft | 421 kts | 181° |
| 2026-05-05 14:49 | 46.56646 | 1.02208 | 27296 ft | 416 kts | 181° |
| 2026-05-05 14:49 | 46.53765 | 1.01979 | 26794 ft | 412 kts | 181° |
| 2026-05-05 14:49 | 46.50917 | 1.01763 | 26295 ft | 408 kts | 181° |
| 2026-05-05 14:50 | 46.48093 | 1.01557 | 25791 ft | 404 kts | 180° |
| 2026-05-05 14:50 | 46.45303 | 1.01361 | 25315 ft | 400 kts | 181° |
| 2026-05-05 14:50 | 46.42533 | 1.01179 | 24852 ft | 396 kts | 181° |
| 2026-05-05 14:50 | 46.39789 | 1.01009 | 24392 ft | 392 kts | 181° |
| 2026-05-05 14:51 | 46.37071 | 1.00852 | 23960 ft | 389 kts | 181° |
| 2026-05-05 14:51 | 46.34378 | 1.00704 | 23536 ft | 386 kts | 181° |
| 2026-05-05 14:51 | 46.31705 | 1.00568 | 23055 ft | 382 kts | 181° |
| 2026-05-05 14:51 | 46.29094 | 1.00448 | 22592 ft | 379 kts | 181° |
| 2026-05-05 14:52 | 46.26467 | 1.00336 | 22136 ft | 376 kts | 181° |
| 2026-05-05 14:52 | 46.23860 | 1.00237 | 21680 ft | 373 kts | 181° |
| 2026-05-05 14:52 | 46.21280 | 1.00151 | 21224 ft | 369 kts | 181° |
| 2026-05-05 14:52 | 46.18720 | 1.00075 | 20764 ft | 366 kts | 181° |
| 2026-05-05 14:53 | 46.16189 | 1.00008 | 20109 ft | 361 kts | 181° |
| 2026-05-05 14:53 | 46.13692 | 0.99949 | 19387 ft | 357 kts | 181° |
| 2026-05-05 14:53 | 46.11219 | 0.99896 | 18747 ft | 353 kts | 181° |
| 2026-05-05 14:53 | 46.08776 | 0.99848 | 18063 ft | 349 kts | 181° |
| 2026-05-05 14:54 | 46.06362 | 0.99812 | 17290 ft | 345 kts | 181° |
| 2026-05-05 14:54 | 46.03971 | 0.99792 | 16509 ft | 341 kts | 181° |
| 2026-05-05 14:54 | 46.01612 | 0.99787 | 15745 ft | 338 kts | 181° |
| 2026-05-05 14:54 | 45.99302 | 0.99798 | 15012 ft | 335 kts | 181° |
| 2026-05-05 14:55 | 45.96982 | 0.99820 | 14279 ft | 332 kts | 181° |
| 2026-05-05 14:55 | 45.94685 | 0.99853 | 13538 ft | 329 kts | 181° |
| 2026-05-05 14:55 | 45.92408 | 0.99886 | 12744 ft | 326 kts | 182° |
| 2026-05-05 14:55 | 45.90203 | 0.99348 | 12003 ft | 319 kts | 201° |
| 2026-05-05 14:56 | 45.88238 | 0.97922 | 11261 ft | 315 kts | 211° |
| 2026-05-05 14:56 | 45.86384 | 0.96267 | 10523 ft | 313 kts | 218° |
| 2026-05-05 14:56 | 45.84881 | 0.94050 | 9830 ft | 309 kts | 230° |
| 2026-05-05 14:56 | 45.83544 | 0.91753 | 9659 ft | 290 kts | 230° |
| 2026-05-05 14:57 | 45.82282 | 0.89604 | 9532 ft | 278 kts | 230° |
| 2026-05-05 14:57 | 45.81042 | 0.87506 | 9392 ft | 274 kts | 230° |
| 2026-05-05 14:57 | 45.79813 | 0.85431 | 9245 ft | 273 kts | 230° |
| 2026-05-05 14:57 | 45.78581 | 0.83353 | 9108 ft | 273 kts | 230° |
| 2026-05-05 14:58 | 45.77370 | 0.81309 | 8980 ft | 273 kts | 230° |
| 2026-05-05 14:58 | 45.76144 | 0.79244 | 8850 ft | 272 kts | 230° |
| 2026-05-05 14:58 | 45.74918 | 0.77184 | 8719 ft | 271 kts | 230° |
| 2026-05-05 14:58 | 45.73695 | 0.75125 | 8593 ft | 272 kts | 230° |
| 2026-05-05 14:59 | 45.72472 | 0.73065 | 8466 ft | 271 kts | 230° |
| 2026-05-05 14:59 | 45.71249 | 0.71003 | 8334 ft | 271 kts | 230° |
| 2026-05-05 14:59 | 45.70029 | 0.68951 | 8198 ft | 270 kts | 230° |
| 2026-05-05 14:59 | 45.68809 | 0.66902 | 8082 ft | 270 kts | 230° |
| 2026-05-05 15:00 | 45.67594 | 0.64863 | 7946 ft | 269 kts | 230° |
| 2026-05-05 15:00 | 45.66788 | 0.63515 | 7862 ft | 269 kts | 230° |
| 2026-05-05 15:00 | 45.65168 | 0.60799 | 7605 ft | 268 kts | 230° |
| 2026-05-05 15:00 | 45.63963 | 0.58780 | 7261 ft | 266 kts | 231° |
| 2026-05-05 15:01 | 45.62777 | 0.56794 | 6921 ft | 265 kts | 231° |
| 2026-05-05 15:01 | 45.61583 | 0.54793 | 6579 ft | 264 kts | 231° |
| 2026-05-05 15:01 | 45.60394 | 0.52800 | 6231 ft | 263 kts | 231° |
| 2026-05-05 15:01 | 45.59204 | 0.50809 | 5870 ft | 262 kts | 231° |
| 2026-05-05 15:02 | 45.58020 | 0.48832 | 5518 ft | 261 kts | 231° |
| 2026-05-05 15:02 | 45.56841 | 0.46865 | 5173 ft | 259 kts | 231° |
| 2026-05-05 15:02 | 45.55678 | 0.44924 | 4963 ft | 257 kts | 231° |
| 2026-05-05 15:02 | 45.54511 | 0.42982 | 4965 ft | 259 kts | 232° |
| 2026-05-05 15:03 | 45.53336 | 0.41028 | 4967 ft | 260 kts | 231° |
| 2026-05-05 15:03 | 45.52162 | 0.39076 | 4964 ft | 259 kts | 231° |
| 2026-05-05 15:03 | 45.50985 | 0.37121 | 4965 ft | 260 kts | 231° |
| 2026-05-05 15:03 | 45.49809 | 0.35165 | 4966 ft | 260 kts | 231° |
| 2026-05-05 15:04 | 45.48675 | 0.33291 | 4964 ft | 246 kts | 231° |
| 2026-05-05 15:04 | 45.47592 | 0.31511 | 4961 ft | 230 kts | 231° |
| 2026-05-05 15:04 | 45.46581 | 0.29849 | 4959 ft | 213 kts | 231° |
| 2026-05-05 15:04 | 45.45644 | 0.28310 | 4959 ft | 200 kts | 231° |
| 2026-05-05 15:05 | 45.43832 | 0.25323 | 4966 ft | 199 kts | 232° |
| 2026-05-05 15:05 | 45.42928 | 0.23832 | 4966 ft | 199 kts | 232° |
| 2026-05-05 15:05 | 45.42025 | 0.22345 | 4966 ft | 198 kts | 231° |
| 2026-05-05 15:06 | 45.41119 | 0.20858 | 4970 ft | 198 kts | 231° |
| 2026-05-05 15:06 | 45.40216 | 0.19373 | 4967 ft | 199 kts | 232° |
| 2026-05-05 15:06 | 45.39303 | 0.17870 | 4977 ft | 211 kts | 231° |
| 2026-05-05 15:06 | 45.38300 | 0.16214 | 4969 ft | 226 kts | 231° |
| 2026-05-05 15:07 | 45.37264 | 0.14510 | 4963 ft | 228 kts | 231° |
| 2026-05-05 15:07 | 45.36224 | 0.12802 | 4961 ft | 228 kts | 231° |
| 2026-05-05 15:07 | 45.35200 | 0.11120 | 4959 ft | 228 kts | 231° |
| 2026-05-05 15:07 | 45.34158 | 0.09414 | 4960 ft | 228 kts | 231° |
| 2026-05-05 15:08 | 45.33114 | 0.07709 | 4960 ft | 229 kts | 231° |
| 2026-05-05 15:08 | 45.32067 | 0.06003 | 4959 ft | 229 kts | 231° |
| 2026-05-05 15:08 | 45.31021 | 0.04299 | 4961 ft | 229 kts | 231° |
| 2026-05-05 15:08 | 45.29975 | 0.02595 | 4957 ft | 229 kts | 231° |
| 2026-05-05 15:09 | 45.28929 | 0.00889 | 4961 ft | 228 kts | 231° |
| 2026-05-05 15:09 | 45.27885 | -0.00815 | 4960 ft | 228 kts | 231° |
| 2026-05-05 15:09 | 45.26842 | -0.02519 | 4960 ft | 229 kts | 231° |
| 2026-05-05 15:09 | 45.25799 | -0.04221 | 4960 ft | 228 kts | 231° |
| 2026-05-05 15:10 | 45.24754 | -0.05924 | 4961 ft | 229 kts | 231° |
| 2026-05-05 15:10 | 45.23711 | -0.07625 | 4964 ft | 229 kts | 231° |
| 2026-05-05 15:10 | 45.22665 | -0.09329 | 4966 ft | 229 kts | 231° |
| 2026-05-05 15:10 | 45.21620 | -0.11030 | 4967 ft | 229 kts | 231° |
| 2026-05-05 15:11 | 45.20576 | -0.12730 | 4970 ft | 229 kts | 231° |
| 2026-05-05 15:11 | 45.19543 | -0.14409 | 4967 ft | 229 kts | 231° |
| 2026-05-05 15:11 | 45.18498 | -0.16107 | 4967 ft | 229 kts | 231° |
| 2026-05-05 15:11 | 45.17453 | -0.17800 | 4968 ft | 228 kts | 231° |
| 2026-05-05 15:12 | 45.16408 | -0.19492 | 4962 ft | 226 kts | 231° |
| 2026-05-05 15:12 | 45.15396 | -0.21126 | 4869 ft | 215 kts | 231° |
| 2026-05-05 15:12 | 45.14431 | -0.22684 | 4728 ft | 205 kts | 231° |
| 2026-05-05 15:12 | 45.13511 | -0.24171 | 4580 ft | 197 kts | 231° |
| 2026-05-05 15:13 | 45.12616 | -0.25619 | 4316 ft | 194 kts | 231° |
| 2026-05-05 15:13 | 45.11751 | -0.27013 | 4178 ft | 183 kts | 231° |
| 2026-05-05 15:13 | 45.10929 | -0.28339 | 4066 ft | 177 kts | 231° |
| 2026-05-05 15:13 | 45.10112 | -0.29662 | 4013 ft | 181 kts | 231° |
| 2026-05-05 15:14 | 45.09282 | -0.31007 | 3975 ft | 181 kts | 231° |
| 2026-05-05 15:14 | 45.08450 | -0.32353 | 3976 ft | 182 kts | 231° |
| 2026-05-05 15:14 | 45.07617 | -0.33699 | 3975 ft | 182 kts | 231° |
| 2026-05-05 15:14 | 45.06779 | -0.35051 | 3980 ft | 183 kts | 231° |
| 2026-05-05 15:15 | 45.05940 | -0.36402 | 3982 ft | 183 kts | 231° |
| 2026-05-05 15:15 | 45.05102 | -0.37755 | 3984 ft | 182 kts | 231° |
| 2026-05-05 15:15 | 45.04264 | -0.39105 | 3985 ft | 182 kts | 230° |
| 2026-05-05 15:15 | 45.03435 | -0.40440 | 3987 ft | 183 kts | 231° |
| 2026-05-05 15:16 | 45.02595 | -0.41791 | 3989 ft | 182 kts | 231° |
| 2026-05-05 15:16 | 45.01758 | -0.43137 | 3992 ft | 182 kts | 230° |
| 2026-05-05 15:16 | 45.00919 | -0.44486 | 3990 ft | 181 kts | 231° |
| 2026-05-05 15:16 | 45.00099 | -0.45802 | 3641 ft | 176 kts | 231° |
| 2026-05-05 15:17 | 44.99287 | -0.47105 | 3305 ft | 176 kts | 231° |
| 2026-05-05 15:17 | 44.98466 | -0.48421 | 3160 ft | 180 kts | 231° |
| 2026-05-05 15:17 | 44.97640 | -0.49744 | 3054 ft | 179 kts | 231° |
| 2026-05-05 15:17 | 44.96817 | -0.51063 | 2995 ft | 179 kts | 231° |
| 2026-05-05 15:18 | 44.95994 | -0.52381 | 2996 ft | 180 kts | 231° |
| 2026-05-05 15:18 | 44.95167 | -0.53706 | 3001 ft | 179 kts | 231° |
| 2026-05-05 15:18 | 44.94370 | -0.54982 | 3018 ft | 172 kts | 231° |
| 2026-05-05 15:18 | 44.93568 | -0.56219 | 3010 ft | 169 kts | 229° |
| 2026-05-05 15:19 | 44.92751 | -0.57398 | 2997 ft | 164 kts | 228° |
| 2026-05-05 15:19 | 44.92023 | -0.58433 | 2842 ft | 142 kts | 228° |
| 2026-05-05 15:19 | 44.91348 | -0.59391 | 2504 ft | 135 kts | 227° |
| 2026-05-05 15:19 | 44.90693 | -0.60326 | 2122 ft | 133 kts | 229° |
| 2026-05-05 15:20 | 44.90049 | -0.61247 | 1981 ft | 132 kts | 229° |
| 2026-05-05 15:20 | 44.89409 | -0.62163 | 1801 ft | 130 kts | 228° |
| 2026-05-05 15:20 | 44.88772 | -0.63077 | 1617 ft | 130 kts | 229° |
| 2026-05-05 15:20 | 44.88138 | -0.63985 | 1459 ft | 129 kts | 229° |
| 2026-05-05 15:21 | 44.87507 | -0.64886 | 1264 ft | 130 kts | 227° |
| 2026-05-05 15:21 | 44.86861 | -0.65786 | 1095 ft | 130 kts | 227° |
| 2026-05-05 15:21 | 44.86430 | -0.66375 | 1006 ft | 130 kts | 226° |
| 2026-05-05 15:21 | 44.85773 | -0.67329 | 905 ft | 149 kts | 230° |
| 2026-05-05 15:22 | 44.85024 | -0.68445 | 691 ft | 154 kts | 229° |
| 2026-05-05 15:22 | 44.84287 | -0.69498 | 366 ft | 150 kts | 228° |
| 2026-05-05 15:22 | 44.83583 | -0.70511 | 208 ft | 135 kts | 227° |
| 2026-05-05 15:22 | 44.83012 | -0.71327 | 165 ft | 103 kts | 225° |
| 2026-05-05 15:23 | 44.82658 | -0.71838 | 168 ft | 33 kts | 223° |
| 2026-05-05 15:23 | 44.82534 | -0.71902 | 166 ft | 12 kts | 136° |
| 2026-05-05 15:23 | 44.82487 | -0.71825 | 166 ft | 0 kts | 131° |
| 2026-05-05 15:24 | 44.82484 | -0.71821 | 166 ft | 3 kts | 131° |
| 2026-05-05 15:24 | 44.82453 | -0.71762 | 166 ft | 12 kts | 119° |
| 2026-05-05 15:24 | 44.82482 | -0.71633 | 166 ft | 18 kts | 47° |
| 2026-05-05 15:24 | 44.82593 | -0.71471 | 166 ft | 27 kts | 46° |
| 2026-05-05 15:25 | 44.82747 | -0.71255 | 164 ft | 33 kts | 45° |
| 2026-05-05 15:25 | 44.82855 | -0.71100 | 165 ft | 12 kts | 46° |
| 2026-05-05 15:25 | 44.82936 | -0.70980 | 165 ft | 22 kts | 46° |
| 2026-05-05 15:25 | 44.83063 | -0.70801 | 164 ft | 23 kts | 45° |
| 2026-05-05 15:26 | 44.83146 | -0.70683 | 164 ft | 12 kts | 45° |
| 2026-05-05 15:26 | 44.83210 | -0.70592 | 163 ft | 13 kts | 45° |
| 2026-05-05 15:26 | 44.83301 | -0.70458 | 163 ft | 24 kts | 46° |
| 2026-05-05 15:26 | 44.83357 | -0.70337 | 162 ft | 14 kts | 106° |
| 2026-05-05 15:27 | 44.83352 | -0.70246 | 162 ft | 11 kts | 121° |
| 2026-05-05 15:27 | 44.83329 | -0.70224 | 163 ft | 1 kts | 133° |
| 2026-05-05 15:27 | 44.83321 | -0.70213 | 163 ft | 0 kts | 135° |